createdAt,value
2023-04-13T00:00:36.742Z,3.00
2023-04-13T00:03:07.900Z,3.63
2023-04-13T00:05:37.984Z,2.05
2023-04-13T00:08:07.096Z,3.63
2023-04-13T00:10:36.842Z,3.50
2023-04-13T00:13:05.543Z,4.57
2023-04-13T00:15:36.865Z,2.65
2023-04-13T00:18:07.050Z,4.75
2023-04-13T00:20:35.935Z,3.95
2023-04-13T00:23:04.847Z,3.13
2023-04-13T00:25:33.429Z,3.30
2023-04-13T00:28:03.826Z,3.78
2023-04-13T00:30:32.588Z,3.13
2023-04-13T00:33:01.334Z,2.67
2023-04-13T00:35:32.086Z,4.82
2023-04-13T00:38:03.097Z,4.47
2023-04-13T00:40:32.121Z,2.50
2023-04-13T00:43:02.514Z,2.05
2023-04-13T00:45:31.321Z,2.88
2023-04-13T00:48:00.360Z,4.20
2023-04-13T00:50:29.761Z,4.10
2023-04-13T00:52:59.720Z,3.63
2023-04-13T00:55:28.937Z,4.68
2023-04-13T00:58:01.534Z,4.30
2023-04-13T01:00:30.324Z,5.13
2023-04-13T01:03:01.783Z,4.60
2023-04-13T01:05:38.372Z,4.78
2023-04-13T01:08:20.298Z,3.47
2023-04-13T01:10:57.863Z,3.55
2023-04-13T01:13:32.278Z,3.95
2023-04-13T01:16:07.859Z,4.18
2023-04-13T01:18:41.795Z,3.70
2023-04-13T01:21:17.219Z,2.17
2023-04-13T01:24:02.350Z,4.38
2023-04-13T01:26:51.207Z,2.85
2023-04-13T01:29:21.222Z,2.28
2023-04-13T01:31:51.133Z,2.90
2023-04-13T01:34:19.868Z,3.45
2023-04-13T01:36:48.593Z,2.88
2023-04-13T01:39:25.592Z,5.80
2023-04-13T01:42:03.798Z,3.33
2023-04-13T01:44:36.059Z,3.20
2023-04-13T01:47:16.098Z,2.72
2023-04-13T01:50:00.997Z,4.85
2023-04-13T01:52:36.881Z,4.68
2023-04-13T01:55:08.566Z,4.05
2023-04-13T01:57:41.011Z,5.13
2023-04-13T02:00:14.969Z,3.85
2023-04-13T02:02:47.118Z,2.75
2023-04-13T02:05:16.705Z,4.72
2023-04-13T02:07:47.456Z,4.47
2023-04-13T02:10:16.392Z,3.85
2023-04-13T02:12:47.939Z,4.95
2023-04-13T02:15:18.468Z,5.43
2023-04-13T02:17:47.754Z,3.63
2023-04-13T02:20:16.479Z,2.70
2023-04-13T02:22:45.813Z,5.18
2023-04-13T02:25:15.562Z,3.13
2023-04-13T02:27:45.552Z,4.13
2023-04-13T02:30:14.348Z,3.38
2023-04-13T02:32:53.531Z,4.45
2023-04-13T02:35:22.500Z,5.18
2023-04-13T02:37:51.077Z,5.53
2023-04-13T02:40:20.927Z,4.53
2023-04-13T02:42:49.774Z,3.25
2023-04-13T02:45:18.982Z,3.83
2023-04-13T02:47:52.383Z,4.50
2023-04-13T02:50:21.218Z,4.75
2023-04-13T02:53:00.636Z,7.82
2023-04-13T02:55:30.800Z,2.05
2023-04-13T02:58:06.752Z,6.22
2023-04-13T03:00:35.888Z,6.25
2023-04-13T03:03:11.421Z,3.85
2023-04-13T03:05:46.099Z,4.80
2023-04-13T03:08:19.189Z,4.35
2023-04-13T03:11:14.091Z,4.43
2023-04-13T03:13:49.095Z,5.00
2023-04-13T03:16:18.720Z,4.80
2023-04-13T03:18:49.628Z,5.03
2023-04-13T03:21:18.312Z,4.57
2023-04-13T03:23:59.977Z,4.07
2023-04-13T03:26:28.729Z,4.97
2023-04-13T03:29:01.371Z,3.75
2023-04-13T03:31:36.926Z,7.43
2023-04-13T03:34:06.989Z,3.67
2023-04-13T03:36:36.872Z,6.70
2023-04-13T03:39:06.101Z,5.13
2023-04-13T03:41:37.610Z,5.88
2023-04-13T03:44:06.532Z,4.18
2023-04-13T03:46:37.482Z,5.82
2023-04-13T03:49:16.716Z,4.50
2023-04-13T03:51:45.360Z,7.43
2023-04-13T03:54:13.909Z,5.78
2023-04-13T03:56:42.595Z,4.82
2023-04-13T03:59:11.520Z,3.25
2023-04-13T04:01:40.309Z,4.95
2023-04-13T04:04:09.278Z,4.72
2023-04-13T04:06:40.219Z,3.47
2023-04-13T04:09:17.829Z,5.07
2023-04-13T04:11:48.160Z,4.38
2023-04-13T04:14:23.568Z,5.13
2023-04-13T04:17:15.646Z,4.90
2023-04-13T04:19:45.009Z,6.85
2023-04-13T04:22:15.071Z,5.07
2023-04-13T04:24:44.427Z,4.53
2023-04-13T04:27:14.635Z,4.10
2023-04-13T04:29:49.777Z,3.95
2023-04-13T04:32:28.800Z,4.80
2023-04-13T04:34:58.236Z,5.18
2023-04-13T04:37:29.488Z,5.60
2023-04-13T04:40:07.699Z,5.25
2023-04-13T04:42:37.277Z,6.18
2023-04-13T04:45:10.660Z,4.53
2023-04-13T04:47:44.749Z,6.40
2023-04-13T04:50:20.422Z,4.18
2023-04-13T04:52:55.929Z,4.53
2023-04-13T04:55:26.580Z,4.22
2023-04-13T04:57:55.432Z,4.60
2023-04-13T05:00:26.610Z,4.68
2023-04-13T05:03:11.855Z,3.42
2023-04-13T05:05:44.821Z,4.00
2023-04-13T05:08:19.673Z,5.82
2023-04-13T05:10:50.877Z,5.47
2023-04-13T05:13:21.854Z,3.05
2023-04-13T05:16:11.018Z,4.57
2023-04-13T05:18:48.276Z,4.72
2023-04-13T05:21:28.825Z,7.15
2023-04-13T05:24:01.852Z,4.53
2023-04-13T05:26:31.471Z,5.75
2023-04-13T05:29:01.585Z,3.38
2023-04-13T05:31:35.081Z,3.47
2023-04-13T05:34:04.994Z,3.17
2023-04-13T05:36:34.218Z,7.97
2023-04-13T05:39:08.828Z,6.95
2023-04-13T05:41:37.508Z,5.65
2023-04-13T05:44:07.233Z,5.40
2023-04-13T05:46:37.204Z,6.10
2023-04-13T05:49:08.375Z,5.88
2023-04-13T05:51:38.973Z,5.70
2023-04-13T05:54:10.666Z,5.40
2023-04-13T05:56:39.723Z,3.75
2023-04-13T05:59:08.842Z,7.43
2023-04-13T06:01:37.861Z,3.92
2023-04-13T06:04:09.564Z,4.38
2023-04-13T06:06:38.383Z,5.07
2023-04-13T06:09:09.908Z,4.90
2023-04-13T06:11:38.468Z,4.60
2023-04-13T06:14:07.026Z,4.35
2023-04-13T06:16:35.822Z,4.25
2023-04-13T06:19:05.116Z,4.28
2023-04-13T06:21:34.769Z,5.78
2023-04-13T06:24:03.305Z,3.65
2023-04-13T06:26:39.524Z,4.70
2023-04-13T06:29:08.242Z,4.93
2023-04-13T06:31:47.126Z,3.90
2023-04-13T06:34:19.309Z,4.25
2023-04-13T06:36:48.103Z,6.20
2023-04-13T06:39:19.559Z,6.47
2023-04-13T06:42:01.480Z,4.82
2023-04-13T06:44:53.506Z,3.45
2023-04-13T06:47:23.136Z,5.47
2023-04-13T06:49:52.103Z,5.03
2023-04-13T06:52:20.989Z,5.38
2023-04-13T06:54:50.012Z,3.85
2023-04-13T06:57:31.141Z,7.15
2023-04-13T07:00:00.366Z,5.00
2023-04-13T07:02:29.304Z,6.70
2023-04-13T07:04:59.918Z,6.18
2023-04-13T07:07:31.901Z,4.03
2023-04-13T07:10:00.823Z,4.97
2023-04-13T07:12:34.208Z,5.97
2023-04-13T07:15:03.089Z,4.85
2023-04-13T07:17:33.923Z,4.65
2023-04-13T07:20:02.567Z,4.28
2023-04-13T07:22:33.795Z,5.63
2023-04-13T07:25:02.967Z,5.30
2023-04-13T07:27:34.309Z,4.53
2023-04-13T07:30:03.675Z,5.18
2023-04-13T08:01:50.955Z,1.55
2023-04-13T08:04:20.334Z,1.90
2023-04-13T08:06:49.789Z,1.45
2023-04-13T08:09:19.297Z,1.85
2023-04-13T08:11:47.840Z,2.97
2023-04-13T08:14:16.765Z,2.10
2023-04-13T08:16:50.760Z,2.88
2023-04-13T08:19:20.519Z,2.25
2023-04-13T08:21:53.113Z,1.83
2023-04-13T08:24:21.886Z,3.17
2023-04-13T08:26:52.334Z,1.67
2023-04-13T08:29:20.935Z,2.13
2023-04-13T08:31:51.225Z,2.83
2023-04-13T08:34:20.648Z,1.73
2023-04-13T08:36:50.422Z,2.00
2023-04-13T08:39:19.093Z,2.97
2023-04-13T08:41:49.450Z,2.00
2023-04-13T08:44:20.753Z,3.05
2023-04-13T08:46:53.691Z,3.58
2023-04-13T08:49:29.319Z,2.45
2023-04-13T08:52:18.894Z,2.67
2023-04-13T08:54:52.220Z,3.25
2023-04-13T08:57:26.099Z,2.22
2023-04-13T08:59:54.926Z,2.20
2023-04-13T09:12:11.684Z,2.65
2023-04-13T09:14:42.347Z,4.43
2023-04-13T09:17:11.172Z,6.07
2023-04-13T09:19:40.894Z,5.38
2023-04-13T09:22:16.454Z,2.47
2023-04-13T09:24:45.072Z,2.78
2023-04-13T09:27:22.082Z,1.10
2023-04-13T09:29:52.314Z,1.88
2023-04-13T09:32:22.676Z,2.45
2023-04-13T09:35:04.309Z,2.78
2023-04-13T09:37:34.346Z,2.35
2023-04-13T09:40:11.376Z,2.33
2023-04-13T09:42:42.473Z,3.15
2023-04-13T09:45:27.347Z,2.80
2023-04-13T09:47:57.887Z,2.50
2023-04-13T09:50:28.478Z,2.92
2023-04-13T09:53:01.454Z,2.38
2023-04-13T09:55:30.710Z,1.17
2023-04-13T09:58:10.178Z,2.40
2023-04-13T10:00:40.246Z,1.95
2023-04-13T10:03:12.337Z,2.65
2023-04-13T10:05:57.984Z,1.73
2023-04-13T10:11:02.647Z,1.92
2023-04-13T10:13:39.977Z,2.22
2023-04-13T10:16:45.794Z,1.92
2023-04-13T10:19:18.354Z,1.65
2023-04-13T10:21:50.306Z,1.88
2023-04-13T10:24:21.249Z,1.67
2023-04-13T10:26:53.563Z,1.90
2023-04-13T10:29:30.363Z,1.25
2023-04-13T10:32:03.660Z,2.10
2023-04-13T10:34:34.415Z,1.40
2023-04-13T10:37:06.688Z,1.60
2023-04-13T10:39:37.012Z,1.60
2023-04-13T10:42:09.337Z,2.38
2023-04-13T10:44:47.204Z,2.05
2023-04-13T10:47:17.470Z,1.88
2023-04-13T10:49:46.933Z,2.42
2023-04-13T10:52:16.345Z,2.15
2023-04-13T10:54:45.755Z,2.30
2023-04-13T10:57:16.894Z,1.38
2023-04-13T10:59:57.876Z,1.50
2023-04-13T11:02:33.241Z,1.10
2023-04-13T11:05:04.836Z,2.35
2023-04-13T11:07:33.781Z,3.03
2023-04-13T11:10:03.499Z,1.48
2023-04-13T11:12:32.751Z,1.70
2023-04-13T11:15:02.789Z,1.23
2023-04-13T11:17:32.242Z,2.42
2023-04-13T11:20:02.124Z,2.15
2023-04-13T11:22:36.678Z,1.63
2023-04-13T11:41:28.952Z,1.58
2023-04-13T11:43:58.291Z,1.27
2023-04-13T11:46:27.879Z,1.55
2023-04-13T11:48:56.918Z,1.70
2023-04-13T11:51:26.799Z,1.65
2023-04-13T12:10:25.622Z,0.98
2023-04-13T12:13:17.431Z,1.13
2023-04-13T12:18:27.899Z,1.33
2023-04-13T12:21:01.819Z,1.38
2023-04-13T12:23:34.568Z,0.93
2023-04-13T12:26:31.973Z,1.10
2023-04-13T12:28:57.572Z,1.30
2023-04-13T12:31:26.650Z,1.45
2023-04-13T12:33:55.170Z,1.02
2023-04-13T12:36:23.766Z,1.70
2023-04-13T12:38:52.326Z,1.67
2023-04-13T12:41:24.201Z,3.15
2023-04-13T12:43:52.804Z,1.55
2023-04-13T12:46:22.160Z,1.13
2023-04-13T12:48:50.759Z,1.13
2023-04-13T12:51:19.431Z,1.30
2023-04-13T12:53:47.934Z,0.70
2023-04-13T12:56:16.917Z,1.30
2023-04-13T12:58:46.855Z,1.23
2023-04-13T13:01:15.483Z,1.38
2023-04-13T13:03:46.178Z,1.08
2023-04-13T13:06:15.105Z,1.42
2023-04-13T13:08:43.783Z,0.82
2023-04-13T13:11:12.398Z,1.25
2023-04-13T13:13:40.991Z,1.02
2023-04-13T13:16:11.082Z,0.88
2023-04-13T13:18:50.369Z,1.15
2023-04-13T13:21:21.286Z,1.52
2023-04-13T13:23:49.932Z,0.98
2023-04-13T13:26:23.989Z,1.40
2023-04-13T13:28:52.920Z,0.68
2023-04-13T13:31:22.977Z,1.00
2023-04-13T13:33:51.666Z,1.17
2023-04-13T13:36:20.251Z,1.08
2023-04-13T13:38:49.182Z,0.85
2023-04-13T13:41:17.808Z,2.30
2023-04-13T13:43:46.496Z,1.80
2023-04-13T13:46:15.218Z,1.80
2023-04-13T13:48:45.472Z,2.08
2023-04-13T13:51:32.877Z,1.60
2023-04-13T13:54:03.086Z,1.00
2023-04-13T13:56:31.625Z,1.15
2023-04-13T13:59:00.388Z,0.98
2023-04-13T14:01:29.107Z,0.95
2023-04-13T14:03:59.378Z,1.48
2023-04-13T14:06:28.708Z,1.13
2023-04-13T14:08:57.373Z,1.48
2023-04-13T14:11:26.344Z,0.82
2023-04-13T14:13:54.929Z,0.73
2023-04-13T14:16:24.581Z,2.47
2023-04-13T14:18:53.290Z,1.13
2023-04-13T14:21:23.367Z,1.08
2023-04-13T14:23:52.066Z,1.15
2023-04-13T14:26:20.807Z,0.75
2023-04-13T14:28:49.579Z,1.40
2023-04-13T14:31:18.186Z,0.98
2023-04-13T14:33:46.860Z,1.52
2023-04-13T14:36:17.098Z,1.35
2023-04-13T14:38:47.170Z,1.00
2023-04-13T14:41:15.921Z,2.53
2023-04-13T14:43:44.504Z,1.33
2023-04-13T14:46:13.448Z,0.95
2023-04-13T14:48:42.196Z,1.05
2023-04-13T14:51:18.574Z,1.50
2023-04-13T14:53:48.494Z,0.70
2023-04-13T14:56:17.091Z,2.03
2023-04-13T14:58:45.765Z,2.08
2023-04-13T15:01:19.084Z,0.80
2023-04-13T15:03:48.310Z,1.60
2023-04-13T15:06:17.102Z,0.80
2023-04-13T15:08:46.436Z,1.48
2023-04-13T15:11:16.519Z,0.90
2023-04-13T15:13:45.071Z,2.47
2023-04-13T15:16:13.667Z,2.28
2023-04-13T15:18:42.280Z,1.67
2023-04-13T15:21:11.044Z,0.85
2023-04-13T15:23:39.682Z,2.10
2023-04-13T15:26:08.345Z,1.38
2023-04-13T15:28:39.447Z,1.70
2023-04-13T15:31:07.998Z,1.25
2023-04-13T15:33:38.098Z,1.95
2023-04-13T15:36:07.423Z,1.48
2023-04-13T15:38:36.208Z,1.50
2023-04-13T15:41:04.779Z,1.75
2023-04-13T15:43:33.437Z,2.47
2023-04-13T15:46:04.669Z,2.28
2023-04-13T15:48:33.649Z,2.88
2023-04-13T15:51:02.836Z,2.65
2023-04-13T15:53:31.584Z,1.95
2023-04-13T15:56:00.294Z,1.55
2023-04-13T15:58:28.968Z,2.65
2023-04-13T16:01:05.109Z,1.52
2023-04-13T16:03:35.498Z,1.60
2023-04-13T16:06:05.014Z,2.03
2023-04-13T16:08:33.637Z,2.33
2023-04-13T16:11:02.272Z,2.17
2023-04-13T16:13:48.974Z,1.15
2023-04-13T16:16:20.069Z,2.47
2023-04-13T16:18:49.357Z,1.90
2023-04-13T16:21:20.201Z,1.83
2023-04-13T16:23:48.813Z,3.25
2023-04-13T16:26:17.373Z,1.73
2023-04-13T16:28:46.710Z,2.08
2023-04-13T16:31:15.305Z,2.88
2023-04-13T16:33:45.254Z,3.63
2023-04-13T16:36:13.727Z,3.83
2023-04-13T16:38:42.808Z,2.78
2023-04-13T16:41:11.893Z,2.47
2023-04-13T16:43:40.634Z,2.50
2023-04-13T16:46:09.208Z,1.05
2023-04-13T16:48:37.749Z,2.42
2023-04-13T16:51:07.878Z,1.38
2023-04-13T16:53:36.718Z,2.53
2023-04-13T16:56:05.988Z,2.10
2023-04-13T16:58:34.588Z,2.33
2023-04-13T17:01:03.311Z,2.35
2023-04-13T17:03:32.623Z,3.72
2023-04-13T17:06:01.567Z,2.20
2023-04-13T17:08:32.309Z,2.10
2023-04-13T17:11:02.446Z,2.17
2023-04-13T17:13:31.508Z,2.67
2023-04-13T17:16:01.393Z,2.35
2023-04-13T17:18:30.112Z,4.20
2023-04-13T17:20:58.752Z,1.77
2023-04-13T17:23:27.321Z,2.40
2023-04-13T17:25:57.528Z,1.52
2023-04-13T17:28:26.564Z,2.38
2023-04-13T17:30:55.103Z,1.88
2023-04-13T17:33:24.502Z,1.75
2023-04-13T17:35:54.595Z,2.42
2023-04-13T17:38:23.382Z,1.92
2023-04-13T17:40:52.192Z,2.25
2023-04-13T17:43:22.147Z,2.30
2023-04-13T17:45:50.799Z,1.98
2023-04-13T17:48:19.455Z,1.92
2023-04-13T17:50:48.114Z,1.45
2023-04-13T17:53:16.737Z,2.45
2023-04-13T17:55:45.553Z,2.20
2023-04-13T17:58:14.154Z,2.90
2023-04-13T18:00:44.271Z,2.95
2023-04-13T18:03:14.286Z,2.35
2023-04-13T18:05:45.586Z,1.95
2023-04-13T18:08:14.294Z,2.47
2023-04-13T18:10:42.921Z,1.30
2023-04-13T18:13:11.645Z,1.70
2023-04-13T18:15:40.156Z,1.55
2023-04-13T18:18:10.202Z,2.63
2023-04-13T18:20:38.799Z,3.53
2023-04-13T18:23:07.515Z,1.77
2023-04-13T18:25:36.212Z,1.50
2023-04-13T18:28:04.977Z,1.42
2023-04-13T18:30:33.586Z,2.33
2023-04-13T18:33:02.303Z,2.95
2023-04-13T18:35:32.337Z,2.50
2023-04-13T18:38:01.026Z,4.15
2023-04-13T18:40:29.557Z,2.65
2023-04-13T18:43:01.394Z,3.03
2023-04-13T18:45:30.661Z,2.42
2023-04-13T18:47:59.382Z,2.50
2023-04-13T18:50:28.216Z,1.60
2023-04-13T18:52:58.206Z,2.40
2023-04-13T18:55:28.616Z,1.52
2023-04-13T18:57:57.372Z,1.50
2023-04-13T19:00:26.326Z,2.63
2023-04-13T19:02:57.499Z,3.00
2023-04-13T19:05:26.528Z,2.70
2023-04-13T19:07:58.818Z,2.75
2023-04-13T19:10:29.025Z,1.80
2023-04-13T19:12:57.606Z,2.90
2023-04-13T19:15:26.592Z,1.65
2023-04-13T19:17:55.395Z,1.83
2023-04-13T19:20:25.554Z,2.20
2023-04-13T19:22:54.246Z,2.63
2023-04-13T19:25:24.362Z,1.83
2023-04-13T19:27:53.027Z,2.05
2023-04-13T19:30:21.562Z,1.63
2023-04-13T19:32:51.316Z,2.55
2023-04-13T19:35:22.430Z,2.15
2023-04-13T19:37:51.267Z,3.22
2023-04-13T19:40:20.290Z,1.65
2023-04-13T19:42:50.409Z,4.25
2023-04-13T19:45:19.050Z,2.03
2023-04-13T19:47:47.839Z,3.15
2023-04-13T19:50:16.771Z,3.08
2023-04-13T19:52:47.473Z,2.50
2023-04-13T19:55:16.118Z,3.50
2023-04-13T19:57:44.677Z,2.55
2023-04-13T20:00:19.240Z,3.25
2023-04-13T20:02:49.768Z,2.85
2023-04-13T20:05:20.750Z,3.88
2023-04-13T20:07:49.702Z,1.70
2023-04-13T20:10:18.219Z,2.70
2023-04-13T20:12:47.006Z,3.10
2023-04-13T20:15:16.910Z,3.42
2023-04-13T20:17:47.950Z,2.58
2023-04-13T20:20:17.134Z,4.63
2023-04-13T20:22:45.812Z,2.97
2023-04-13T20:25:14.340Z,3.25
2023-04-13T20:27:42.881Z,2.67
2023-04-13T20:30:12.295Z,3.30
2023-04-13T20:32:42.251Z,5.47
2023-04-13T20:35:11.555Z,3.65
2023-04-13T20:37:40.098Z,4.80
2023-04-13T20:40:11.308Z,5.07
2023-04-13T20:42:42.308Z,5.03
2023-04-13T20:45:12.634Z,3.08
2023-04-13T20:47:43.347Z,4.45
2023-04-13T20:50:13.442Z,4.72
2023-04-13T20:52:42.793Z,2.97
2023-04-13T20:55:11.812Z,3.40
2023-04-13T20:57:42.294Z,4.05
2023-04-13T21:00:15.556Z,3.28
2023-04-13T21:02:46.950Z,2.35
2023-04-13T21:05:15.761Z,3.28
2023-04-13T21:07:45.383Z,2.58
2023-04-13T21:10:15.635Z,2.85
2023-04-13T21:12:44.293Z,4.28
2023-04-13T21:15:13.104Z,4.20
2023-04-13T21:17:41.763Z,4.40
2023-04-13T21:20:13.534Z,2.58
2023-04-13T21:22:42.090Z,2.88
2023-04-13T21:25:11.096Z,4.25
2023-04-13T21:27:40.773Z,2.97
2023-04-13T21:30:10.173Z,2.70
2023-04-13T21:32:38.781Z,1.60
2023-04-13T21:35:08.564Z,3.20
2023-04-13T21:37:38.498Z,4.05
2023-04-13T21:40:08.055Z,3.20
2023-04-13T21:42:37.233Z,3.08
2023-04-13T21:45:06.550Z,3.65
2023-04-13T21:47:35.221Z,5.68
2023-04-13T21:50:03.805Z,2.15
2023-04-13T21:52:32.419Z,3.45
2023-04-13T21:55:03.460Z,2.97
2023-04-13T21:57:31.990Z,3.47
2023-04-13T22:00:00.707Z,5.43
2023-04-13T22:02:29.347Z,4.18
2023-04-13T22:04:57.968Z,3.58
2023-04-13T22:07:41.155Z,3.05
2023-04-13T22:10:13.125Z,5.18
2023-04-13T22:12:41.731Z,5.00
2023-04-13T22:15:10.717Z,2.78
2023-04-13T22:17:39.333Z,2.97
2023-04-13T22:20:09.283Z,3.45
2023-04-13T22:22:37.775Z,4.95
2023-04-13T22:25:06.945Z,4.63
2023-04-13T22:27:37.582Z,3.60
2023-04-13T22:30:07.556Z,2.85
2023-04-13T22:32:36.321Z,4.15
2023-04-13T22:35:05.153Z,4.85
2023-04-13T22:37:35.482Z,4.55
2023-04-13T22:40:05.677Z,2.25
2023-04-13T22:42:34.320Z,4.47
2023-04-13T22:45:04.445Z,3.15
2023-04-13T22:47:33.151Z,4.60
2023-04-13T22:50:02.224Z,2.85
2023-04-13T22:52:31.556Z,5.45
2023-04-13T22:55:00.066Z,4.00
2023-04-13T22:57:28.556Z,4.82
2023-04-13T22:59:57.096Z,4.50
2023-04-13T23:02:27.228Z,4.82
2023-04-13T23:04:55.906Z,3.30
2023-04-13T23:07:24.531Z,5.78
2023-04-13T23:09:53.793Z,5.03
2023-04-13T23:12:22.354Z,2.78
2023-04-13T23:14:52.851Z,3.05
2023-04-13T23:17:21.660Z,5.15
2023-04-13T23:19:54.759Z,3.97
2023-04-13T23:22:23.504Z,3.15
2023-04-13T23:24:53.243Z,4.63
2023-04-13T23:27:21.806Z,4.93
2023-04-13T23:29:51.039Z,3.25
2023-04-13T23:32:19.685Z,3.38
2023-04-13T23:34:48.234Z,6.88
2023-04-13T23:37:18.199Z,3.53
2023-04-13T23:39:46.785Z,2.70
2023-04-13T23:42:15.385Z,2.75
2023-04-13T23:44:43.916Z,3.63
2023-04-13T23:47:14.022Z,3.58
2023-04-13T23:49:42.738Z,3.72
2023-04-13T23:52:11.317Z,3.25
2023-04-13T23:54:41.346Z,4.32
2023-04-13T23:57:10.495Z,4.38
2023-04-13T23:59:38.978Z,4.15
